KHMN/HMN METAR and TAF weather

Enter ICAO airport designator
Station Type Date Time Source
KHMN METAR 2022/06/28 07:58 UTC NOAA

KHMN 280758Z AUTO 33013KT 10SM BKN130 21/17 A3032 RMK AO2 SLP201 T02090165 $


Station Type Date Time Source
KHMN Decoded METAR 2022/06/28 07:58 UTC NOAA

Holloman Air Force Base, NM, United States (KHMN) 32-51N 106-06W 1248M
Jun 28, 2022 - 03:58 AM EDT / 2022.06.28 0758 UTC
Wind: from the NNW (330 degrees) at 15 MPH (13 KT):0
Visibility: 10 mile(s):0
Sky conditions: mostly cloudy
Temperature: 69.6 F (20.9 C)
Dew Point: 61.7 F (16.5 C)
Relative Humidity: 75%
Pressure (altimeter): 30.32 in. Hg (1026 hPa)
ob: KHMN 280758Z AUTO 33013KT 10SM BKN130 21/17 A3032 RMK AO2 SLP201 T02090165
cycle: 8

Station Type Date Time Source
KHMN TAF 2022/06/28 04:58 UTC NOAA

TAF
AMD KHMN 280430Z 2804/2907 28012G18KT 9999 BKN080 QNH3028INS
TEMPO 2804/2807 28015G25KT
BECMG 2807/2808 12012G18KT 9000 -SHRA BKN050 QNH3023INS
BECMG 2811/2812 VRB06KT 9999 NSW BKN070 QNH3026INS
BECMG 2818/2819 18009KT 9999 SCT100 QNH3022INS TS OMTNS
BECMG 2900/2901 VRB06KT 9999 FEW100 QNH3018INS TX30/2821Z TN20/2812Z

Example: see airport list